createdAt,value
2023-05-22T00:03:48.391Z,46.85
2023-05-22T00:08:53.732Z,40.22
2023-05-22T00:13:58.951Z,45.15
2023-05-22T00:19:05.110Z,57.65
2023-05-22T00:24:11.659Z,44.05
2023-05-22T00:29:16.832Z,47.35
2023-05-22T00:34:22.403Z,51.70
2023-05-22T00:39:27.765Z,51.30
2023-05-22T00:49:38.190Z,50.97
2023-05-22T00:54:43.822Z,50.47
2023-05-22T00:59:49.001Z,56.20
2023-05-22T01:04:58.211Z,49.83
2023-05-22T01:10:03.754Z,79.07
2023-05-22T01:15:28.286Z,38.85
2023-05-22T01:20:59.540Z,57.47
2023-05-22T01:26:23.653Z,73.10
2023-05-22T01:31:32.407Z,57.95
2023-05-22T01:36:39.973Z,59.25
2023-05-22T01:41:45.475Z,58.83
2023-05-22T01:46:50.801Z,52.67
2023-05-22T01:57:28.290Z,67.15
2023-05-22T02:02:37.849Z,75.68
2023-05-22T02:07:45.222Z,61.35
2023-05-22T02:12:50.921Z,55.42
2023-05-22T02:17:56.083Z,55.92
2023-05-22T02:28:07.824Z,62.88
2023-05-22T02:33:13.271Z,59.05
2023-05-22T02:38:18.582Z,46.00
2023-05-22T02:43:23.982Z,56.55
2023-05-22T02:48:30.700Z,46.50
2023-05-22T02:53:36.875Z,74.90
2023-05-22T02:58:42.124Z,74.22
2023-05-22T03:08:52.624Z,69.77
2023-05-22T03:13:58.315Z,60.95
2023-05-22T03:19:14.644Z,48.75
2023-05-22T03:24:20.425Z,49.00
2023-05-22T03:29:25.972Z,57.38
2023-05-22T03:34:33.611Z,51.22
2023-05-22T03:39:41.018Z,71.95
2023-05-22T03:45:08.345Z,45.72
2023-05-22T03:50:15.034Z,52.50
2023-05-22T04:00:26.910Z,71.57
2023-05-22T04:05:33.316Z,54.63
2023-05-22T04:10:40.462Z,58.53
2023-05-22T04:15:48.448Z,68.03
2023-05-22T04:20:54.048Z,63.55
2023-05-22T04:25:59.681Z,68.03
2023-05-22T04:31:07.743Z,71.30
2023-05-22T04:36:14.446Z,63.40
2023-05-22T04:41:21.813Z,72.93
2023-05-22T04:46:30.204Z,67.35
2023-05-22T04:51:36.331Z,65.22
2023-05-22T04:56:44.756Z,66.50
2023-05-22T05:01:51.916Z,61.45
2023-05-22T05:06:58.957Z,50.50
2023-05-22T05:12:05.062Z,58.53
2023-05-22T05:17:10.472Z,61.42
2023-05-22T05:22:17.534Z,61.85
2023-05-22T05:27:22.736Z,59.53
2023-05-22T05:32:29.611Z,60.40
2023-05-22T05:37:54.769Z,62.50
2023-05-22T05:43:01.950Z,58.53
2023-05-22T05:48:08.118Z,61.15
2023-05-22T05:53:17.928Z,58.72
2023-05-22T05:58:32.845Z,56.03
2023-05-22T06:04:08.360Z,51.00
2023-05-22T06:09:15.558Z,49.63
2023-05-22T06:14:47.032Z,48.97
2023-05-22T06:19:52.903Z,46.33
2023-05-22T06:24:59.163Z,53.53
2023-05-22T06:30:39.011Z,46.60
2023-05-22T06:35:51.135Z,46.80
2023-05-22T06:40:59.473Z,46.67
2023-05-22T06:46:05.403Z,46.45
2023-05-22T06:51:22.039Z,48.97
2023-05-22T06:56:30.255Z,49.53
2023-05-22T07:01:41.637Z,47.30
2023-05-22T07:06:54.927Z,52.33
2023-05-22T07:12:01.670Z,40.17
2023-05-22T07:17:08.073Z,47.63
2023-05-22T07:22:19.019Z,47.60
2023-05-22T07:27:42.495Z,39.88
2023-05-22T07:32:50.942Z,51.80
2023-05-22T07:37:58.601Z,53.67
2023-05-22T07:43:04.360Z,49.28
2023-05-22T07:48:09.810Z,48.72
2023-05-22T07:53:15.725Z,52.45
2023-05-22T07:58:22.779Z,40.80
2023-05-22T08:03:29.087Z,46.72
2023-05-22T08:08:35.297Z,35.08
2023-05-22T08:13:40.934Z,47.33
2023-05-22T08:18:46.496Z,42.97
2023-05-22T08:23:52.391Z,44.65
2023-05-22T08:28:58.281Z,42.63
2023-05-22T08:34:04.519Z,41.83
2023-05-22T08:39:12.441Z,42.08
2023-05-22T08:44:17.992Z,40.20
2023-05-22T08:49:25.131Z,37.30
2023-05-22T08:54:31.646Z,43.15
2023-05-22T08:59:42.957Z,40.63
2023-05-22T09:04:48.471Z,45.83
2023-05-22T09:10:04.271Z,42.13
2023-05-22T09:15:18.737Z,42.08
2023-05-22T09:20:24.167Z,37.45
2023-05-22T09:25:30.993Z,41.38
2023-05-22T09:30:39.847Z,46.00
2023-05-22T09:35:47.198Z,45.90
2023-05-22T09:40:56.401Z,41.05
2023-05-22T09:46:08.319Z,23.35
2023-05-22T09:51:14.557Z,43.17
2023-05-22T09:56:31.239Z,47.63
2023-05-22T10:01:44.738Z,48.43
2023-05-22T10:06:54.882Z,41.50
2023-05-22T10:12:07.475Z,52.30
2023-05-22T10:17:13.865Z,46.55
2023-05-22T10:22:22.331Z,43.13
2023-05-22T10:27:27.974Z,44.03
2023-05-22T10:32:43.087Z,47.35
2023-05-22T10:38:09.783Z,54.03
2023-05-22T10:43:15.530Z,53.00
2023-05-22T10:48:24.644Z,43.72
2023-05-22T10:53:33.565Z,45.42
2023-05-22T10:58:39.075Z,51.85
2023-05-22T11:03:56.351Z,57.35
2023-05-22T11:09:02.424Z,50.53
2023-05-22T11:14:07.756Z,55.30
2023-05-22T11:24:21.642Z,65.15
2023-05-22T11:29:27.069Z,54.50
2023-05-22T11:34:32.527Z,54.45
2023-05-22T11:39:38.106Z,73.40
2023-05-22T11:44:43.952Z,53.38
2023-05-22T11:49:49.604Z,65.22
2023-05-22T11:54:55.064Z,63.17
2023-05-22T12:00:12.202Z,71.00
2023-05-22T12:05:18.118Z,51.28
2023-05-22T12:10:28.158Z,58.28
2023-05-22T12:15:33.263Z,53.50
2023-05-22T12:20:43.271Z,64.65
2023-05-22T12:26:52.994Z,71.30
2023-05-22T12:32:08.968Z,60.15
2023-05-22T12:37:29.619Z,65.35
2023-05-22T12:42:35.011Z,66.05
2023-05-22T12:47:40.728Z,59.15
2023-05-22T12:52:46.215Z,56.03
2023-05-22T12:57:51.298Z,52.95
2023-05-22T13:02:56.934Z,51.22
2023-05-22T13:08:02.774Z,52.55
2023-05-22T13:13:08.188Z,54.00
2023-05-22T13:18:14.426Z,58.63
2023-05-22T13:23:20.150Z,51.33
2023-05-22T13:28:25.811Z,54.47
2023-05-22T13:33:31.415Z,59.75
2023-05-22T13:38:36.892Z,58.53
2023-05-22T13:43:42.306Z,57.20
2023-05-22T13:48:47.656Z,55.30
2023-05-22T13:53:53.355Z,48.38
2023-05-22T13:58:58.897Z,56.90
2023-05-22T14:04:04.711Z,57.67
2023-05-22T14:09:11.001Z,59.25
2023-05-22T14:14:16.624Z,53.47
2023-05-22T14:19:26.124Z,56.63
2023-05-22T14:24:34.707Z,51.67
2023-05-22T14:29:42.762Z,62.05
2023-05-22T14:34:48.343Z,61.95
2023-05-22T14:39:56.282Z,54.75
2023-05-22T14:45:01.462Z,62.20
2023-05-22T14:55:21.073Z,53.40
2023-05-22T15:00:26.353Z,62.50
2023-05-22T15:05:33.431Z,59.72
2023-05-22T15:10:39.314Z,55.08
2023-05-22T15:15:44.722Z,61.72
2023-05-22T15:20:50.257Z,57.53
2023-05-22T15:25:56.224Z,72.43
2023-05-22T15:31:01.940Z,72.13
2023-05-22T15:36:07.859Z,59.35
2023-05-22T15:41:13.253Z,60.08
2023-05-22T15:46:18.919Z,58.10
2023-05-22T15:51:24.261Z,59.40
2023-05-22T15:56:29.873Z,53.30
2023-05-22T16:01:35.473Z,58.40
2023-05-22T16:06:40.487Z,54.22
2023-05-22T16:16:50.830Z,57.72
2023-05-22T16:28:39.013Z,54.83
2023-05-22T16:33:44.799Z,60.47
2023-05-22T16:38:49.964Z,55.55
2023-05-22T16:49:00.636Z,50.78
2023-05-22T16:59:10.433Z,54.92
2023-05-22T17:09:23.582Z,47.55
2023-05-22T17:14:28.972Z,48.75
2023-05-22T17:19:34.380Z,50.10
2023-05-22T17:24:39.789Z,51.70
2023-05-22T17:29:44.949Z,54.50
2023-05-22T17:34:50.337Z,55.40
2023-05-22T17:39:55.778Z,46.20
2023-05-22T17:45:01.177Z,45.28
2023-05-22T17:50:06.767Z,43.28
2023-05-22T17:55:12.643Z,35.92
2023-05-22T18:00:19.393Z,41.88
2023-05-22T18:05:24.542Z,37.13
2023-05-22T18:10:29.686Z,38.17
2023-05-22T18:20:40.409Z,46.13
2023-05-22T18:25:46.220Z,40.05
2023-05-22T18:30:53.846Z,47.47
2023-05-22T18:36:01.564Z,54.10
2023-05-22T18:41:07.962Z,48.50
2023-05-22T18:46:13.099Z,45.55
2023-05-22T18:56:23.694Z,41.20
2023-05-22T19:01:29.104Z,48.40
2023-05-22T19:06:34.815Z,43.67
2023-05-22T19:11:40.482Z,47.72
2023-05-22T19:16:45.594Z,40.95
2023-05-22T19:26:55.824Z,32.83
2023-05-22T19:32:00.873Z,45.47
2023-05-22T19:37:05.908Z,44.28
2023-05-22T19:42:12.135Z,41.70
2023-05-22T19:47:21.754Z,33.00
2023-05-22T19:52:29.722Z,39.08
2023-05-22T19:57:35.085Z,35.28
2023-05-22T20:02:43.889Z,42.47
2023-05-22T20:07:50.024Z,41.30
2023-05-22T20:12:56.575Z,33.10
2023-05-22T20:18:03.918Z,42.45
2023-05-22T20:23:09.555Z,42.05
2023-05-22T20:28:14.562Z,33.17
2023-05-22T20:38:25.642Z,41.85
2023-05-22T20:43:33.708Z,39.65
2023-05-22T20:48:39.402Z,42.58
2023-05-22T20:53:45.066Z,34.90
2023-05-22T20:58:50.039Z,40.28
2023-05-22T21:03:57.772Z,47.05
2023-05-22T21:09:03.119Z,34.40
2023-05-22T21:14:08.515Z,40.28
2023-05-22T21:19:13.874Z,38.80
2023-05-22T21:24:19.143Z,39.22
2023-05-22T21:29:24.482Z,34.55
2023-05-22T21:34:29.745Z,34.25
2023-05-22T21:44:39.864Z,32.45
2023-05-22T21:49:45.242Z,34.97
2023-05-22T21:54:50.635Z,35.10
2023-05-22T21:59:56.415Z,35.05
2023-05-22T22:05:01.869Z,41.58
2023-05-22T22:10:07.601Z,42.45
2023-05-22T22:15:14.500Z,35.17
2023-05-22T22:20:24.695Z,39.70
2023-05-22T22:25:35.533Z,43.55
2023-05-22T22:30:40.950Z,44.17
2023-05-22T22:35:47.318Z,37.70
2023-05-22T22:40:52.291Z,32.28
2023-05-22T22:51:03.790Z,35.92
2023-05-22T22:56:09.139Z,39.28
2023-05-22T23:01:14.453Z,39.30
2023-05-22T23:06:19.860Z,39.67
2023-05-22T23:11:25.535Z,36.40
2023-05-22T23:16:31.871Z,36.58
2023-05-22T23:21:37.386Z,38.08
2023-05-22T23:26:42.960Z,41.58
2023-05-22T23:31:48.896Z,38.45
2023-05-22T23:36:54.323Z,37.47
2023-05-22T23:42:03.439Z,34.38
2023-05-22T23:47:08.999Z,40.35
2023-05-22T23:52:15.271Z,36.97
2023-05-22T23:57:20.956Z,42.95
